Taiki Maru — JI3464 — position and weather

sailwx.info

Track history (hours):
 
Tides and Currents Weather Stations Pressure Air Temp Water Temp Dewpoint Dewpoint Depression Visibility Wind Speed Wind Dir Waves Ship Positions

Taiki Maru

Last reported at 2014-Oct-23 05:13 UTC. Time now 2014-Oct-24 07:49 UTC.
Position N 33°55' E 130°20'.

Length 93 m; draft 5.2 m.

Type: Cargo ship. MMSI: 431300622.

Date/timePositionNaut miles runAvg speedWind from/ knotsBaromVisibWave heightAir tempDewpointWater temp
2014-Oct-23 05:13N 33°55' E 130°20'912.6
2014-Oct-23 04:33N 33°50' E 130°12'1313.0
2014-Oct-23 03:33N 33°43' E 129°59'  
2014-Oct-20 21:29N 33°44' E 129°60'1312.4
2014-Oct-20 20:27N 33°51' E 130°12'  
2014-Oct-18 10:15N 34°34' E 134°49'1114.9
2014-Oct-18 09:31N 34°37' E 135°01'1313.6
2014-Oct-18 08:33N 34°36' E 135°17'9 9.0
2014-Oct-18 07:33N 34°40' E 135°27'0 0.0
2014-Oct-18 06:33N 34°40' E 135°27'0 0.0
2014-Oct-18 05:21N 34°40' E 135°27'0 0.0
2014-Oct-18 04:21N 34°40' E 135°27'0 0.0
2014-Oct-18 03:15N 34°40' E 135°27'0 0.0
2014-Oct-18 02:33N 34°40' E 135°27'0 0.0
2014-Oct-18 01:33N 34°40' E 135°27'0 0.0
2014-Oct-18 00:33N 34°40' E 135°27'0 0.0
2014-Oct-17 23:27N 34°40' E 135°27'0 0.0
2014-Oct-17 22:33N 34°40' E 135°27'1 1.5
2014-Oct-17 21:33N 34°39' E 135°25'7 6.8
2014-Oct-17 20:29N 34°35' E 135°18'0 0.0
2014-Oct-17 19:11N 34°35' E 135°18'0 0.1
2014-Oct-17 18:29N 34°35' E 135°18'0 0.0
2014-Oct-17 17:23N 34°35' E 135°18'0 0.0
2014-Oct-17 16:29N 34°35' E 135°18'0 0.0
2014-Oct-17 15:29N 34°35' E 135°18'0 0.0
2014-Oct-17 14:23N 34°35' E 135°18'0 0.0
2014-Oct-17 13:33N 34°35' E 135°18'0 0.0
2014-Oct-17 12:33N 34°35' E 135°18'0 0.0
2014-Oct-17 11:33N 34°35' E 135°18'0 0.0
2014-Oct-17 10:33N 34°35' E 135°18'1 1.1
2014-Oct-17 09:33N 34°35' E 135°16'1111.4
2014-Oct-17 08:33N 34°36' E 135°03'1110.5
2014-Oct-17 07:32N 34°38' E 134°50'3 0.2
2014-Oct-16 15:20N 34°39' E 134°47'1012.8
2014-Oct-16 14:33N 34°38' E 134°59'1212.4
2014-Oct-16 13:33N 34°36' E 135°14'1111.2
2014-Oct-16 12:31N 34°40' E 135°27'0 0.1
2014-Oct-16 11:31N 34°40' E 135°27'0 0.0
2014-Oct-16 10:31N 34°40' E 135°27'0 0.0
2014-Oct-16 08:31N 34°40' E 135°27'0 0.0
2014-Oct-16 07:10N 34°40' E 135°27'0 0.0
2014-Oct-16 06:28N 34°40' E 135°27'0 0.0
2014-Oct-16 05:28N 34°40' E 135°27'0 0.0
2014-Oct-16 04:22N 34°40' E 135°27'0 0.0
2014-Oct-16 03:28N 34°40' E 135°27'0 0.2
2014-Oct-16 02:26N 34°40' E 135°27'6 6.9
2014-Oct-16 01:33N 34°36' E 135°21'3 2.8
2014-Oct-16 00:32N 34°35' E 135°18'0 0.0
2014-Oct-15 23:32N 34°35' E 135°18'0 0.0
2014-Oct-15 22:32N 34°35' E 135°18'0 0.1
2014-Oct-15 21:26N 34°35' E 135°18'0 0.0
2014-Oct-15 20:32N 34°35' E 135°18'1 1.5
2014-Oct-15 19:33N 34°35' E 135°16'1211.9
2014-Oct-15 18:33N 34°37' E 135°02'1411.7
2014-Oct-15 17:22N 34°39' E 134°45'4 0.3
2014-Oct-15 03:25N 34°39' E 134°50'1315.1
2014-Oct-15 02:33N 34°35' E 135°05'1414.3
2014-Oct-15 01:33N 34°21' E 135°01'1413.7
2014-Oct-15 00:33N 34°08' E 134°59'  
Track history (hours):
 
Tides and Currents Weather Stations Pressure Air Temp Water Temp Dewpoint Dewpoint Depression Visibility Wind Speed Wind Dir Waves Ship Positions

Taiki Maru

Last reported at 2014-Oct-23 05:13 UTC. Time now 2014-Oct-24 07:49 UTC.
Position N 33°55' E 130°20'.

Length 93 m; draft 5.2 m.

Type: Cargo ship. MMSI: 431300622.

Date/timePositionNaut miles runAvg speedWind from/ knotsBaromVisibWave heightAir tempDewpointWater temp
2014-Oct-23 05:13N 33°55' E 130°20'912.6
2014-Oct-23 04:33N 33°50' E 130°12'1313.0
2014-Oct-23 03:33N 33°43' E 129°59'  
2014-Oct-20 21:29N 33°44' E 129°60'1312.4
2014-Oct-20 20:27N 33°51' E 130°12'  
2014-Oct-18 10:15N 34°34' E 134°49'1114.9
2014-Oct-18 09:31N 34°37' E 135°01'1313.6
2014-Oct-18 08:33N 34°36' E 135°17'9 9.0
2014-Oct-18 07:33N 34°40' E 135°27'0 0.0
2014-Oct-18 06:33N 34°40' E 135°27'0 0.0
2014-Oct-18 05:21N 34°40' E 135°27'0 0.0
2014-Oct-18 04:21N 34°40' E 135°27'0 0.0
2014-Oct-18 03:15N 34°40' E 135°27'0 0.0
2014-Oct-18 02:33N 34°40' E 135°27'0 0.0
2014-Oct-18 01:33N 34°40' E 135°27'0 0.0
2014-Oct-18 00:33N 34°40' E 135°27'0 0.0
2014-Oct-17 23:27N 34°40' E 135°27'0 0.0
2014-Oct-17 22:33N 34°40' E 135°27'1 1.5
2014-Oct-17 21:33N 34°39' E 135°25'7 6.8
2014-Oct-17 20:29N 34°35' E 135°18'0 0.0
2014-Oct-17 19:11N 34°35' E 135°18'0 0.1
2014-Oct-17 18:29N 34°35' E 135°18'0 0.0
2014-Oct-17 17:23N 34°35' E 135°18'0 0.0
2014-Oct-17 16:29N 34°35' E 135°18'0 0.0
2014-Oct-17 15:29N 34°35' E 135°18'0 0.0
2014-Oct-17 14:23N 34°35' E 135°18'0 0.0
2014-Oct-17 13:33N 34°35' E 135°18'0 0.0
2014-Oct-17 12:33N 34°35' E 135°18'0 0.0
2014-Oct-17 11:33N 34°35' E 135°18'0 0.0
2014-Oct-17 10:33N 34°35' E 135°18'1 1.1
2014-Oct-17 09:33N 34°35' E 135°16'1111.4
2014-Oct-17 08:33N 34°36' E 135°03'1110.5
2014-Oct-17 07:32N 34°38' E 134°50'3 0.2
2014-Oct-16 15:20N 34°39' E 134°47'1012.8
2014-Oct-16 14:33N 34°38' E 134°59'1212.4
2014-Oct-16 13:33N 34°36' E 135°14'1111.2
2014-Oct-16 12:31N 34°40' E 135°27'0 0.1
2014-Oct-16 11:31N 34°40' E 135°27'0 0.0
2014-Oct-16 10:31N 34°40' E 135°27'0 0.0
2014-Oct-16 08:31N 34°40' E 135°27'0 0.0
2014-Oct-16 07:10N 34°40' E 135°27'0 0.0
2014-Oct-16 06:28N 34°40' E 135°27'0 0.0
2014-Oct-16 05:28N 34°40' E 135°27'0 0.0
2014-Oct-16 04:22N 34°40' E 135°27'0 0.0
2014-Oct-16 03:28N 34°40' E 135°27'0 0.2
2014-Oct-16 02:26N 34°40' E 135°27'6 6.9
2014-Oct-16 01:33N 34°36' E 135°21'3 2.8
2014-Oct-16 00:32N 34°35' E 135°18'0 0.0
2014-Oct-15 23:32N 34°35' E 135°18'0 0.0
2014-Oct-15 22:32N 34°35' E 135°18'0 0.1
2014-Oct-15 21:26N 34°35' E 135°18'0 0.0
2014-Oct-15 20:32N 34°35' E 135°18'1 1.5
2014-Oct-15 19:33N 34°35' E 135°16'1211.9
2014-Oct-15 18:33N 34°37' E 135°02'1411.7
2014-Oct-15 17:22N 34°39' E 134°45'4 0.3
2014-Oct-15 03:25N 34°39' E 134°50'1315.1
2014-Oct-15 02:33N 34°35' E 135°05'1414.3
2014-Oct-15 01:33N 34°21' E 135°01'1413.7
2014-Oct-15 00:33N 34°08' E 134°59'  

Dump ship's entire track history